Time;durP1;ratioP1;P1;durP2;ratioP2;P2;SDS_P1;SDS_P2;PMS_P1;PMS_P2;Temp;Humidity;BMP_temperature;BMP_pressure;BME280_temperature;BME280_humidity;BME280_pressure;Samples;Min_cycle;Max_cycle;Signal;HPM_P1;HPM_P2
2021/03/01 00:00:41;;;;;;;81.63;22.37;;;2.80;98.80;;;;;;5047951;28;20119;-62
2021/03/01 00:03:07;;;;;;;165.57;22.27;;;3.00;98.90;;;;;;5048101;28;20061;-62
2021/03/01 00:05:33;;;;;;;310.50;21.70;;;3.00;98.80;;;;;;5047947;28;20138;-63
2021/03/01 00:07:59;;;;;;;448.13;22.70;;;3.00;98.80;;;;;;5048123;28;20049;-62
2021/03/01 00:10:24;;;;;;;427.17;24.10;;;3.00;98.70;;;;;;5047687;28;20522;-62
2021/03/01 00:12:51;;;;;;;289.20;23.93;;;3.00;98.70;;;;;;5047978;28;20556;-62
2021/03/01 00:15:19;;;;;;;526.28;24.00;;;3.00;98.80;;;;;;5047738;28;20424;-62
2021/03/01 00:17:45;;;;;;;501.25;23.63;;;2.90;98.70;;;;;;5047476;28;20071;-64
2021/03/01 00:20:13;;;;;;;462.30;22.10;;;2.90;98.80;;;;;;5047696;28;20467;-63
2021/03/01 00:22:42;;;;;;;433.30;22.75;;;2.90;98.80;;;;;;5047744;28;20044;-63
2021/03/01 00:25:09;;;;;;;436.77;21.52;;;2.90;98.80;;;;;;5047533;28;20079;-63
2021/03/01 00:27:35;;;;;;;374.58;22.27;;;2.80;98.80;;;;;;5047467;28;20086;-63
2021/03/01 00:30:01;;;;;;;266.03;21.77;;;2.80;98.80;;;;;;5047282;28;20097;-63
2021/03/01 00:32:27;;;;;;;270.40;18.40;;;2.80;98.90;;;;;;5047160;28;20048;-63
2021/03/01 00:34:53;;;;;;;225.20;17.13;;;2.70;98.70;;;;;;5047712;28;20053;-63
2021/03/01 00:37:19;;;;;;;151.33;16.47;;;2.70;98.70;;;;;;5047835;28;20049;-63
2021/03/01 00:39:44;;;;;;;175.10;18.30;;;2.60;98.70;;;;;;5049148;28;20053;-62
2021/03/01 00:42:10;;;;;;;216.73;19.10;;;2.60;98.70;;;;;;5051807;28;20045;-63
2021/03/01 00:44:36;;;;;;;231.23;19.30;;;2.70;98.80;;;;;;5051645;28;20048;-63
2021/03/01 00:47:02;;;;;;;245.10;19.73;;;2.70;98.80;;;;;;5051674;28;20049;-63
2021/03/01 00:49:28;;;;;;;242.10;20.05;;;2.70;98.80;;;;;;5051822;28;20053;-63
2021/03/01 00:51:53;;;;;;;235.53;20.27;;;2.70;99.10;;;;;;5047912;28;20078;-63
2021/03/01 00:54:19;;;;;;;227.82;21.67;;;2.70;98.90;;;;;;5047592;28;20072;-63
2021/03/01 00:56:45;;;;;;;244.47;20.90;;;2.80;99.00;;;;;;5049684;28;20049;-63
2021/03/01 00:59:12;;;;;;;243.87;22.37;;;2.80;99.00;;;;;;5050943;28;20045;-62
2021/03/01 01:01:37;;;;;;;235.77;22.75;;;2.90;99.00;;;;;;5050865;28;20331;-63
2021/03/01 01:04:04;;;;;;;245.67;21.97;;;2.90;99.10;;;;;;5050684;28;20126;-63
2021/03/01 01:06:31;;;;;;;230.50;23.10;;;3.00;99.10;;;;;;5051323;28;20083;-63
2021/03/01 01:08:57;;;;;;;232.77;22.17;;;3.00;99.10;;;;;;5050752;28;20041;-63
2021/03/01 01:11:22;;;;;;;259.87;23.57;;;3.10;99.10;;;;;;5050658;28;20075;-63
2021/03/01 01:13:48;;;;;;;260.43;24.50;;;3.20;99.20;;;;;;5050715;28;20064;-63
2021/03/01 01:16:14;;;;;;;222.13;24.47;;;3.20;99.10;;;;;;5050493;28;20059;-63
2021/03/01 01:18:40;;;;;;;187.63;22.33;;;3.20;99.10;;;;;;5050906;28;20103;-63
2021/03/01 01:21:05;;;;;;;238.00;25.67;;;3.30;99.20;;;;;;5050505;28;20395;-63
2021/03/01 01:23:31;;;;;;;179.70;23.13;;;3.30;99.20;;;;;;5050653;28;20430;-63
2021/03/01 01:25:57;;;;;;;166.93;24.67;;;3.40;99.30;;;;;;5050491;28;20123;-63
2021/03/01 01:28:24;;;;;;;158.80;25.97;;;3.40;99.30;;;;;;5050657;28;20053;-62
2021/03/01 01:30:49;;;;;;;148.35;25.38;;;3.50;99.30;;;;;;5050356;28;20067;-63
2021/03/01 01:33:16;;;;;;;99.15;24.77;;;3.50;99.40;;;;;;5050559;28;20076;-63
2021/03/01 01:35:41;;;;;;;133.23;24.33;;;3.60;99.40;;;;;;5050652;28;20091;-62
2021/03/01 01:38:07;;;;;;;133.77;23.07;;;3.60;99.40;;;;;;5050641;28;20382;-63
2021/03/01 01:40:34;;;;;;;126.90;22.70;;;3.60;99.30;;;;;;5050833;28;20047;-63
2021/03/01 01:42:59;;;;;;;159.82;23.92;;;3.60;99.30;;;;;;5050525;28;20060;-63
2021/03/01 01:45:26;;;;;;;178.47;23.27;;;3.60;99.30;;;;;;5050212;28;20111;-63
2021/03/01 01:47:52;;;;;;;252.93;26.77;;;3.60;99.30;;;;;;5050506;28;20099;-63
2021/03/01 01:50:20;;;;;;;203.18;23.35;;;3.60;99.30;;;;;;5050559;28;20135;-63
2021/03/01 01:52:48;;;;;;;172.43;20.88;;;3.60;99.30;;;;;;5050484;28;20731;-63
2021/03/01 01:55:14;;;;;;;173.07;22.08;;;3.60;99.30;;;;;;5050212;28;20052;-63
2021/03/01 01:57:41;;;;;;;187.32;22.67;;;3.60;99.30;;;;;;5050269;28;20471;-63
2021/03/01 02:00:15;;;;;;;217.80;21.13;;;3.60;99.30;;;;;;5050060;28;20095;-63
2021/03/01 02:02:41;;;;;;;193.52;22.15;;;3.60;99.30;;;;;;5050065;28;20056;-63
2021/03/01 02:05:09;;;;;;;190.90;20.92;;;3.50;99.20;;;;;;5050014;28;20387;-62
2021/03/01 02:07:58;;;;;;;218.20;22.10;;;3.50;99.30;;;;;;5049039;28;20064;-63
2021/03/01 02:10:48;;;;;;;282.98;25.13;;;3.50;99.30;;;;;;5049751;28;20068;-63
2021/03/01 02:13:27;;;;;;;203.05;21.65;;;3.50;99.30;;;;;;5049638;28;20208;-63
2021/03/01 02:15:57;;;;;;;302.27;23.17;;;3.50;99.40;;;;;;5049684;28;20509;-63
2021/03/01 02:18:23;;;;;;;299.13;24.33;;;3.40;99.40;;;;;;5049449;28;20059;-63
2021/03/01 02:20:49;;;;;;;212.90;23.00;;;3.40;99.50;;;;;;5049484;28;20053;-63
2021/03/01 02:23:16;;;;;;;171.00;22.02;;;3.40;99.50;;;;;;5049728;28;20136;-63
2021/03/01 02:25:59;;;;;;;164.93;21.45;;;3.40;99.50;;;;;;5049647;28;20056;-63
2021/03/01 02:28:32;;;;;;;156.25;21.08;;;3.40;99.60;;;;;;5049650;28;20049;-63
2021/03/01 02:31:01;;;;;;;117.38;20.98;;;3.40;99.60;;;;;;5049583;28;20525;-63
2021/03/01 02:33:36;;;;;;;94.15;20.42;;;3.40;99.60;;;;;;5049457;28;20045;-63
2021/03/01 02:36:30;;;;;;;89.38;21.90;;;3.40;99.60;;;;;;5049371;28;20070;-63
2021/03/01 02:38:58;;;;;;;188.18;21.25;;;3.40;99.50;;;;;;5044954;28;20144;-63
2021/03/01 02:41:24;;;;;;;336.77;28.35;;;3.40;99.40;;;;;;5048923;28;20450;-62
2021/03/01 02:43:51;;;;;;;157.48;22.95;;;3.30;99.50;;;;;;5049150;28;20095;-63
2021/03/01 02:46:17;;;;;;;119.20;22.80;;;3.30;99.60;;;;;;5049386;28;20098;-63
2021/03/01 02:48:44;;;;;;;122.13;23.38;;;3.30;99.60;;;;;;5049213;28;20049;-63
2021/03/01 02:51:11;;;;;;;97.63;22.35;;;3.40;99.60;;;;;;5048893;28;20529;-63
2021/03/01 02:53:39;;;;;;;69.47;21.85;;;3.40;99.50;;;;;;5048982;28;20041;-63
2021/03/01 02:56:07;;;;;;;66.97;21.40;;;3.40;99.50;;;;;;5048774;28;20175;-63
2021/03/01 02:58:34;;;;;;;65.75;22.52;;;3.40;99.40;;;;;;5048929;28;20125;-63
2021/03/01 03:01:02;;;;;;;88.70;22.40;;;3.40;99.40;;;;;;5048843;28;20076;-63
2021/03/01 03:03:29;;;;;;;62.80;22.08;;;3.50;99.30;;;;;;5047548;28;20049;-63
2021/03/01 03:05:55;;;;;;;60.85;21.92;;;3.50;99.30;;;;;;5048667;28;20122;-63
2021/03/01 03:08:22;;;;;;;55.30;21.10;;;3.50;99.20;;;;;;5048786;28;20049;-63
2021/03/01 03:10:49;;;;;;;53.97;21.42;;;3.50;99.20;;;;;;5048734;28;20044;-63
2021/03/01 03:13:17;;;;;;;53.70;20.55;;;3.50;99.00;;;;;;5048379;28;20127;-63
2021/03/01 03:15:45;;;;;;;52.55;20.83;;;3.50;99.00;;;;;;5048858;28;20070;-63
2021/03/01 03:18:13;;;;;;;53.85;21.38;;;3.60;99.00;;;;;;5048715;28;20082;-63
2021/03/01 03:20:39;;;;;;;51.88;21.35;;;3.60;98.90;;;;;;5048430;28;20056;-63
2021/03/01 03:23:06;;;;;;;55.35;21.70;;;3.60;98.80;;;;;;5048556;28;20049;-63
2021/03/01 03:25:32;;;;;;;56.20;20.63;;;3.60;98.70;;;;;;5048565;28;20041;-63
2021/03/01 03:27:58;;;;;;;49.70;20.43;;;3.70;98.70;;;;;;5048342;28;20056;-63
2021/03/01 03:30:26;;;;;;;48.77;20.53;;;3.70;98.70;;;;;;5048401;28;20059;-63
2021/03/01 03:32:53;;;;;;;54.85;21.10;;;3.70;98.60;;;;;;5048183;28;20080;-63
2021/03/01 03:35:19;;;;;;;52.83;22.17;;;3.80;98.60;;;;;;5048174;28;20052;-63
2021/03/01 03:37:51;;;;;;;51.38;21.25;;;3.80;98.60;;;;;;5048225;28;20111;-63
2021/03/01 03:40:18;;;;;;;49.50;20.23;;;3.80;98.60;;;;;;5048257;28;20455;-63
2021/03/01 03:42:45;;;;;;;54.92;21.40;;;3.80;98.50;;;;;;5048144;28;20075;-63
2021/03/01 03:45:15;;;;;;;48.13;19.02;;;3.80;98.50;;;;;;5048453;28;20083;-63
2021/03/01 03:47:47;;;;;;;40.90;18.50;;;3.90;98.40;;;;;;5048334;28;20049;-63
2021/03/01 03:50:14;;;;;;;44.75;19.08;;;3.80;98.50;;;;;;5047949;28;20053;-63
2021/03/01 03:52:43;;;;;;;48.63;18.90;;;3.90;98.30;;;;;;5048244;28;20360;-63
2021/03/01 03:55:17;;;;;;;43.38;17.75;;;3.90;98.30;;;;;;5048558;28;20049;-63
2021/03/01 03:58:06;;;;;;;47.30;19.88;;;3.90;98.20;;;;;;5047923;28;20131;-63
2021/03/01 04:00:34;;;;;;;49.00;19.50;;;3.90;98.10;;;;;;5047680;28;20064;-63
2021/03/01 04:03:06;;;;;;;44.90;19.23;;;3.90;98.10;;;;;;5047720;28;20493;-63
2021/03/01 04:05:32;;;;;;;42.65;19.17;;;3.90;98.10;;;;;;5048347;28;20112;-63
2021/03/01 04:07:59;;;;;;;38.08;17.10;;;3.90;98.40;;;;;;5047989;28;20386;-63
2021/03/01 04:10:30;;;;;;;39.72;17.90;;;3.80;98.30;;;;;;5047779;28;20045;-63
2021/03/01 04:12:58;;;;;;;42.22;17.20;;;3.90;98.00;;;;;;5047885;28;20063;-64
2021/03/01 04:15:27;;;;;;;35.45;16.25;;;3.80;98.30;;;;;;5047938;28;20102;-63
2021/03/01 04:17:53;;;;;;;34.33;15.35;;;3.80;97.90;;;;;;5047836;28;20053;-63
2021/03/01 04:20:23;;;;;;;38.17;15.15;;;3.80;97.90;;;;;;5047962;28;20072;-63
2021/03/01 04:22:53;;;;;;;33.58;16.50;;;3.80;97.90;;;;;;5047919;28;20054;-63
2021/03/01 04:25:20;;;;;;;40.05;17.25;;;3.80;97.80;;;;;;5047923;28;20051;-63
2021/03/01 04:27:46;;;;;;;40.60;17.25;;;3.90;97.90;;;;;;5047694;28;20122;-63
2021/03/01 04:30:15;;;;;;;44.10;17.52;;;3.80;97.80;;;;;;5047716;28;20488;-63
2021/03/01 04:32:44;;;;;;;41.08;18.58;;;3.90;97.80;;;;;;5051480;28;20056;-62
2021/03/01 04:35:13;;;;;;;46.20;19.08;;;3.90;97.80;;;;;;5051615;28;20093;-63
2021/03/01 04:37:40;;;;;;;41.38;18.35;;;3.90;97.80;;;;;;5051467;28;20056;-63
2021/03/01 04:40:06;;;;;;;46.73;19.27;;;3.90;97.80;;;;;;5051513;28;20053;-63
2021/03/01 04:42:33;;;;;;;43.05;17.88;;;3.90;97.80;;;;;;5051151;28;20295;-63
2021/03/01 04:45:00;;;;;;;37.25;16.70;;;3.90;97.80;;;;;;5049888;28;20115;-63
2021/03/01 04:47:26;;;;;;;37.58;16.42;;;4.00;97.70;;;;;;5051218;28;20094;-63
2021/03/01 04:49:54;;;;;;;36.67;16.05;;;4.00;97.60;;;;;;5051259;28;20133;-63
2021/03/01 04:52:21;;;;;;;40.58;17.08;;;4.00;97.60;;;;;;5051276;28;20149;-63
2021/03/01 04:54:49;;;;;;;37.30;16.77;;;4.00;97.60;;;;;;5051000;28;20370;-63
2021/03/01 04:57:16;;;;;;;37.53;16.98;;;4.00;97.60;;;;;;5051334;28;20144;-63
2021/03/01 04:59:42;;;;;;;39.67;17.27;;;4.00;97.60;;;;;;5051024;28;20060;-63
2021/03/01 05:02:09;;;;;;;35.28;15.55;;;4.00;97.50;;;;;;5049700;28;20045;-63
2021/03/01 05:04:36;;;;;;;33.03;15.23;;;4.00;97.50;;;;;;5050997;28;20045;-63
2021/03/01 05:07:05;;;;;;;37.47;15.60;;;4.10;97.50;;;;;;5050977;28;20071;-63
2021/03/01 05:09:35;;;;;;;32.25;13.77;;;4.00;97.60;;;;;;5050347;28;20044;-63
2021/03/01 05:12:01;;;;;;;37.15;14.90;;;4.00;97.50;;;;;;5050717;28;20152;-63
2021/03/01 05:14:26;;;;;;;33.47;13.93;;;4.00;97.50;;;;;;5050963;28;20696;-63
2021/03/01 05:16:52;;;;;;;30.93;13.30;;;4.10;97.40;;;;;;5051159;28;20052;-63
2021/03/01 05:19:18;;;;;;;30.73;14.30;;;4.00;97.40;;;;;;5051302;28;20072;-63
2021/03/01 05:21:44;;;;;;;37.07;14.77;;;4.10;97.40;;;;;;5051331;28;20364;-63
2021/03/01 05:24:10;;;;;;;36.80;15.23;;;4.10;97.40;;;;;;5050685;28;20128;-63
2021/03/01 05:26:35;;;;;;;37.40;14.67;;;4.10;97.40;;;;;;5050686;28;20063;-63
2021/03/01 05:29:03;;;;;;;32.50;13.97;;;4.10;97.40;;;;;;5050656;28;20506;-63
2021/03/01 05:31:28;;;;;;;30.77;12.57;;;4.10;97.40;;;;;;5050552;28;20049;-63
2021/03/01 05:33:54;;;;;;;29.50;12.77;;;4.10;97.20;;;;;;5050228;28;20060;-63
2021/03/01 05:36:20;;;;;;;26.03;11.23;;;4.10;97.10;;;;;;5050669;28;20131;-63
2021/03/01 05:38:46;;;;;;;26.33;12.00;;;4.00;97.20;;;;;;5050242;28;20049;-63
2021/03/01 05:41:15;;;;;;;31.33;12.68;;;4.00;97.20;;;;;;5050145;28;20072;-63
2021/03/01 05:43:41;;;;;;;29.08;12.57;;;4.00;97.30;;;;;;5048617;28;20053;-63
2021/03/01 05:46:08;;;;;;;27.67;12.05;;;4.00;97.30;;;;;;5046250;28;20046;-63
2021/03/01 05:48:34;;;;;;;30.42;12.55;;;4.00;97.40;;;;;;5039366;28;20049;-63
2021/03/01 05:51:02;;;;;;;34.90;13.40;;;4.00;97.40;;;;;;5030307;28;20571;-63
2021/03/01 05:53:32;;;;;;;32.78;13.40;;;4.00;97.40;;;;;;5030487;28;20053;-63
2021/03/01 05:55:59;;;;;;;33.08;14.85;;;4.00;97.40;;;;;;5031449;28;20092;-64
2021/03/01 05:58:29;;;;;;;32.65;14.20;;;4.10;97.50;;;;;;5035823;28;20053;-64
2021/03/01 06:01:05;;;;;;;32.78;12.63;;;4.10;97.50;;;;;;5030403;28;20048;-63
2021/03/01 06:03:35;;;;;;;28.55;13.07;;;4.10;97.50;;;;;;5030031;28;20129;-63
2021/03/01 06:06:02;;;;;;;31.77;13.80;;;4.10;97.40;;;;;;5030324;28;20112;-63
2021/03/01 06:08:30;;;;;;;31.02;12.95;;;4.10;97.40;;;;;;5029291;28;20050;-62
2021/03/01 06:10:58;;;;;;;33.65;12.45;;;4.10;97.30;;;;;;5029414;28;20356;-63
2021/03/01 06:13:25;;;;;;;25.73;12.35;;;4.10;97.30;;;;;;5029550;28;20141;-63
2021/03/01 06:15:53;;;;;;;27.73;12.70;;;4.10;97.30;;;;;;5029404;28;20057;-63
2021/03/01 06:18:19;;;;;;;28.05;11.05;;;4.20;97.30;;;;;;5028249;28;20049;-64
2021/03/01 06:20:44;;;;;;;24.50;11.13;;;4.20;97.20;;;;;;5028410;28;20068;-64
2021/03/01 06:23:10;;;;;;;25.40;10.57;;;4.20;97.00;;;;;;5032032;28;20334;-64
2021/03/01 06:25:36;;;;;;;22.83;10.37;;;4.20;96.90;;;;;;5048594;28;20056;-63
2021/03/01 06:28:05;;;;;;;24.70;9.27;;;4.20;96.80;;;;;;5048709;28;20090;-63
2021/03/01 06:30:36;;;;;;;20.63;9.30;;;4.20;96.70;;;;;;5063226;28;20399;-63
2021/03/01 06:33:06;;;;;;;23.48;10.30;;;4.20;96.60;;;;;;5049178;28;20116;-63
2021/03/01 06:35:52;;;;;;;18.75;8.93;;;4.20;96.60;;;;;;5049078;28;20487;-63
2021/03/01 06:38:27;;;;;;;23.17;9.55;;;4.20;96.70;;;;;;5049305;28;20456;-62
2021/03/01 06:41:23;;;;;;;22.52;9.10;;;4.30;96.60;;;;;;5049703;28;20045;-63
2021/03/01 06:43:53;;;;;;;23.25;9.00;;;4.30;96.50;;;;;;5036414;28;20507;-64
2021/03/01 06:46:20;;;;;;;22.30;9.95;;;4.30;96.50;;;;;;5049126;28;20106;-63
2021/03/01 06:48:46;;;;;;;20.48;9.18;;;4.30;96.30;;;;;;5048162;28;20068;-62
2021/03/01 06:51:12;;;;;;;28.00;10.33;;;4.30;96.20;;;;;;5048733;28;20483;-64
2021/03/01 06:53:38;;;;;;;29.60;11.57;;;4.40;96.20;;;;;;5049184;28;20352;-63
2021/03/01 06:56:13;;;;;;;26.02;10.25;;;4.50;96.30;;;;;;5049185;28;20049;-64
2021/03/01 06:58:47;;;;;;;22.50;10.63;;;4.50;96.10;;;;;;5048799;28;20128;-63
2021/03/01 07:01:20;;;;;;;21.48;9.88;;;4.50;96.10;;;;;;5049641;28;20092;-65
2021/03/01 07:03:49;;;;;;;25.75;10.23;;;4.50;96.10;;;;;;5048969;28;20093;-63
2021/03/01 07:06:16;;;;;;;30.98;11.13;;;4.50;96.10;;;;;;5062253;28;20044;-67
2021/03/01 07:08:52;;;;;;;21.88;10.07;;;4.60;96.20;;;;;;5050417;28;20041;-61
2021/03/01 07:11:37;;;;;;;24.63;10.85;;;4.60;96.40;;;;;;5051618;28;20053;-61
2021/03/01 07:14:05;;;;;;;27.38;10.75;;;4.70;96.10;;;;;;5046557;28;20072;-61
2021/03/01 07:17:04;;;;;;;28.08;10.82;;;4.60;96.00;;;;;;5046119;28;20053;-62
2021/03/01 07:19:32;;;;;;;27.20;10.25;;;4.70;96.00;;;;;;5047192;28;20044;-62
2021/03/01 07:22:00;;;;;;;26.13;11.13;;;4.70;96.10;;;;;;5048588;28;20045;-61
2021/03/01 07:24:27;;;;;;;26.05;10.23;;;4.70;96.00;;;;;;5048569;28;20526;-63
2021/03/01 07:26:56;;;;;;;23.27;10.27;;;4.80;96.00;;;;;;5048035;28;20053;-62
2021/03/01 07:29:23;;;;;;;25.20;10.07;;;4.80;96.00;;;;;;5048271;28;20099;-63
2021/03/01 07:31:53;;;;;;;27.10;10.50;;;4.80;96.00;;;;;;5047742;28;20121;-61
2021/03/01 07:34:19;;;;;;;21.10;9.98;;;4.80;95.80;;;;;;5047800;28;20463;-62
2021/03/01 07:36:45;;;;;;;24.30;10.03;;;4.90;95.70;;;;;;5048766;28;20091;-62
2021/03/01 07:39:11;;;;;;;28.70;10.93;;;4.90;95.60;;;;;;5048935;28;20075;-62
2021/03/01 07:41:38;;;;;;;25.42;10.18;;;4.90;95.50;;;;;;5047934;28;20452;-63
2021/03/01 07:44:05;;;;;;;28.20;11.20;;;4.90;95.40;;;;;;5048676;28;20055;-62
2021/03/01 07:46:34;;;;;;;24.05;10.30;;;5.00;95.50;;;;;;5048720;28;20045;-61
2021/03/01 07:49:00;;;;;;;23.55;9.50;;;5.10;95.30;;;;;;5048702;28;20089;-63
2021/03/01 07:51:49;;;;;;;25.57;10.03;;;5.10;95.10;;;;;;5052717;28;20088;-67
2021/03/01 07:54:18;;;;;;;24.33;10.73;;;5.20;95.30;;;;;;5053016;28;20072;-62
2021/03/01 07:56:47;;;;;;;23.23;11.10;;;5.20;95.00;;;;;;5050421;28;20049;-64
2021/03/01 07:59:14;;;;;;;25.40;10.98;;;5.40;94.80;;;;;;5048963;28;20503;-68
2021/03/01 08:01:40;;;;;;;24.70;10.43;;;5.30;94.50;;;;;;5049771;28;20503;-62
2021/03/01 08:04:26;;;;;;;24.57;9.90;;;5.30;94.20;;;;;;5048838;28;20084;-61
2021/03/01 08:06:56;;;;;;;22.35;10.75;;;5.30;94.10;;;;;;5052072;28;20653;-62
2021/03/01 08:09:53;;;;;;;26.42;11.60;;;5.30;93.70;;;;;;5051708;28;20067;-62
2021/03/01 08:12:27;;;;;;;23.20;10.25;;;5.20;93.50;;;;;;5051764;28;20072;-62
2021/03/01 08:14:53;;;;;;;;;;;5.20;93.80;;;;;;5052302;28;20483;-62
2021/03/01 08:17:31;;;;;;;18.83;8.90;;;5.20;93.60;;;;;;5061012;28;19994;-62
2021/03/01 08:20:22;;;;;;;25.02;8.80;;;5.30;94.10;;;;;;5071325;28;20040;-62
2021/03/01 08:23:10;;;;;;;20.05;8.40;;;5.40;93.80;;;;;;5071557;28;20502;-61
2021/03/01 08:25:42;;;;;;;21.17;8.75;;;5.50;93.90;;;;;;5072467;28;20124;-62
2021/03/01 08:28:08;;;;;;;16.95;6.88;;;5.60;93.90;;;;;;5075114;28;20094;-62
2021/03/01 08:30:34;;;;;;;20.48;7.22;;;5.60;93.40;;;;;;5076455;28;20109;-62
2021/03/01 08:33:09;;;;;;;17.42;6.90;;;5.60;93.10;;;;;;5073868;28;20073;-62
2021/03/01 08:35:35;;;;;;;17.73;6.97;;;5.70;93.10;;;;;;5075928;28;20044;-62
2021/03/01 08:38:02;;;;;;;19.02;7.40;;;5.60;93.00;;;;;;5073900;28;20053;-62
2021/03/01 08:40:27;;;;;;;20.48;6.93;;;5.70;93.00;;;;;;5071106;28;20048;-62
2021/03/01 08:43:02;;;;;;;20.27;7.53;;;5.70;92.50;;;;;;5070976;28;20044;-62
2021/03/01 08:45:43;;;;;;;19.55;7.15;;;5.80;92.70;;;;;;5071779;28;20124;-63
2021/03/01 08:48:19;;;;;;;15.43;6.97;;;5.80;92.40;;;;;;5071015;28;20052;-62
2021/03/01 08:50:47;;;;;;;17.38;7.00;;;5.80;92.60;;;;;;5070941;28;20044;-62
2021/03/01 08:53:28;;;;;;;15.90;7.30;;;6.10;92.70;;;;;;5071885;28;20490;-62
2021/03/01 08:55:55;;;;;;;16.33;6.93;;;6.00;92.30;;;;;;5071232;28;20193;-62
2021/03/01 08:58:22;;;;;;;16.83;7.75;;;6.00;92.40;;;;;;5070267;28;20040;-62
2021/03/01 09:00:50;;;;;;;14.88;7.13;;;5.90;92.30;;;;;;5070473;28;20184;-62
2021/03/01 09:03:21;;;;;;;14.85;6.53;;;6.00;92.30;;;;;;5070109;28;20467;-62
2021/03/01 09:05:49;;;;;;;18.98;7.72;;;6.00;92.30;;;;;;5070503;28;20160;-62
2021/03/01 09:08:24;;;;;;;22.73;7.78;;;5.90;92.00;;;;;;5069846;28;20161;-61
2021/03/01 09:10:50;;;;;;;18.45;6.90;;;6.00;92.20;;;;;;5070379;28;20040;-61
2021/03/01 09:13:18;;;;;;;16.07;7.00;;;6.10;92.20;;;;;;5070243;28;20513;-62
2021/03/01 09:15:45;;;;;;;22.02;7.93;;;6.10;91.80;;;;;;5069571;28;20556;-62
2021/03/01 09:18:11;;;;;;;15.85;7.30;;;6.10;91.60;;;;;;5070259;28;20518;-62
2021/03/01 09:20:40;;;;;;;17.30;6.97;;;6.10;91.80;;;;;;5069934;28;20102;-62
2021/03/01 09:23:06;;;;;;;14.75;6.47;;;6.00;91.80;;;;;;5069273;28;20068;-62
2021/03/01 09:25:34;;;;;;;17.65;6.88;;;5.90;91.80;;;;;;5069849;28;20060;-63
2021/03/01 09:28:00;;;;;;;13.43;6.43;;;5.90;92.10;;;;;;5070949;28;20037;-63
2021/03/01 09:30:27;;;;;;;16.80;7.05;;;5.90;92.20;;;;;;5069811;28;20132;-62
2021/03/01 09:33:01;;;;;;;18.48;6.43;;;5.90;92.00;;;;;;5070617;28;20169;-62
2021/03/01 09:35:30;;;;;;;15.25;6.00;;;6.00;91.80;;;;;;5070168;28;20052;-62
2021/03/01 09:37:56;;;;;;;16.58;6.82;;;5.90;91.50;;;;;;5073592;28;20056;-62
2021/03/01 09:40:24;;;;;;;15.65;6.93;;;5.90;91.70;;;;;;5072831;28;20059;-63
2021/03/01 09:43:01;;;;;;;16.90;6.30;;;5.90;91.70;;;;;;5070602;28;20120;-62
2021/03/01 09:45:34;;;;;;;16.75;5.95;;;5.90;91.60;;;;;;5079934;28;20051;-62
2021/03/01 09:48:02;;;;;;;14.48;6.22;;;6.00;91.20;;;;;;5080924;28;20061;-62
2021/03/01 09:50:29;;;;;;;11.10;5.65;;;6.00;91.30;;;;;;5078510;28;20128;-61
2021/03/01 09:52:56;;;;;;;17.35;6.25;;;5.90;91.30;;;;;;5081398;28;20100;-64
2021/03/01 09:55:22;;;;;;;17.77;5.90;;;5.90;91.30;;;;;;5074678;28;20116;-61
2021/03/01 09:57:48;;;;;;;14.20;5.90;;;6.00;91.40;;;;;;5069235;28;20147;-62
2021/03/01 10:00:31;;;;;;;15.00;7.10;;;6.10;91.40;;;;;;5068513;28;20507;-63
2021/03/01 10:03:05;;;;;;;20.65;6.70;;;6.00;91.20;;;;;;5068224;28;20041;-62
2021/03/01 10:05:32;;;;;;;;;;;5.90;91.00;;;;;;5069532;28;20296;-63
2021/03/01 10:08:02;;;;;;;18.92;7.35;;;5.80;91.00;;;;;;5069227;28;19920;-62
2021/03/01 10:10:39;;;;;;;14.90;6.68;;;5.80;91.70;;;;;;5068996;28;20040;-64
2021/03/01 10:13:06;;;;;;;18.55;7.15;;;5.80;91.90;;;;;;5068897;28;20079;-63
2021/03/01 10:15:47;;;;;;;16.20;7.32;;;5.80;91.90;;;;;;5069020;28;20037;-62
2021/03/01 10:18:15;;;;;;;16.88;7.30;;;5.90;92.00;;;;;;5068408;28;20447;-63
2021/03/01 10:20:53;;;;;;;16.30;7.53;;;5.80;91.80;;;;;;5069053;28;20052;-62
2021/03/01 10:23:27;;;;;;;15.15;7.72;;;5.90;92.00;;;;;;5068278;28;20055;-63
2021/03/01 10:26:16;;;;;;;18.17;7.53;;;6.00;91.90;;;;;;5069033;28;20493;-64
2021/03/01 10:29:02;;;;;;;17.52;7.18;;;6.00;91.90;;;;;;5067934;28;20131;-62
2021/03/01 10:31:36;;;;;;;16.38;7.57;;;6.10;91.80;;;;;;5068669;28;20068;-62
2021/03/01 10:34:03;;;;;;;20.30;7.80;;;6.00;91.90;;;;;;5068672;28;20048;-62
2021/03/01 10:36:55;;;;;;;20.85;8.38;;;6.00;91.80;;;;;;5069279;28;20129;-62
2021/03/01 10:39:32;;;;;;;16.90;7.45;;;6.20;91.90;;;;;;5068658;28;20044;-62
2021/03/01 10:42:11;;;;;;;18.55;7.28;;;6.10;91.70;;;;;;5069010;28;20036;-62
2021/03/01 10:44:40;;;;;;;17.10;7.05;;;6.20;91.50;;;;;;5068408;28;20040;-63
2021/03/01 10:47:13;;;;;;;16.90;6.97;;;6.20;91.50;;;;;;5068628;28;20045;-62
2021/03/01 10:49:41;;;;;;;15.27;6.78;;;6.20;91.20;;;;;;5068954;28;20172;-62
2021/03/01 10:52:08;;;;;;;15.38;6.53;;;6.30;91.30;;;;;;5067418;28;20194;-62
2021/03/01 10:54:36;;;;;;;15.20;7.05;;;6.40;91.00;;;;;;5068925;28;20101;-62
2021/03/01 10:57:02;;;;;;;16.48;7.15;;;6.60;90.60;;;;;;5068612;28;20411;-63
2021/03/01 10:59:28;;;;;;;14.15;6.93;;;6.70;90.50;;;;;;5069262;28;20063;-63
2021/03/01 11:01:53;;;;;;;14.37;6.43;;;6.70;90.80;;;;;;5069060;28;20071;-62
2021/03/01 11:04:20;;;;;;;16.67;6.73;;;6.60;90.50;;;;;;5068876;28;20071;-62
2021/03/01 11:06:48;;;;;;;17.25;6.70;;;6.70;90.30;;;;;;5068316;28;20477;-62
2021/03/01 11:09:14;;;;;;;14.48;6.95;;;6.70;90.40;;;;;;5068466;28;20037;-62
2021/03/01 11:11:40;;;;;;;16.50;6.85;;;6.70;90.20;;;;;;5068077;28;20041;-63
2021/03/01 11:14:07;;;;;;;16.42;7.78;;;6.70;89.70;;;;;;5067985;28;20106;-61
2021/03/01 11:16:33;;;;;;;21.77;8.02;;;6.80;90.60;;;;;;5068345;28;20040;-62
2021/03/01 11:18:59;;;;;;;19.37;8.47;;;6.80;90.50;;;;;;5068387;28;20452;-62
2021/03/01 11:21:25;;;;;;;17.30;7.85;;;6.80;90.20;;;;;;5068333;28;20059;-61
2021/03/01 11:23:51;;;;;;;19.00;8.60;;;6.80;90.40;;;;;;5068986;28;20044;-62
2021/03/01 11:26:17;;;;;;;16.37;8.10;;;6.80;90.40;;;;;;5068347;28;20064;-62
2021/03/01 11:28:43;;;;;;;17.23;7.97;;;6.90;90.20;;;;;;5068657;28;20055;-67
2021/03/01 11:31:09;;;;;;;15.55;7.85;;;6.90;90.30;;;;;;5089651;28;20123;-65
2021/03/01 11:33:36;;;;;;;18.55;7.60;;;7.00;90.30;;;;;;5091633;28;20033;-65
2021/03/01 11:36:02;;;;;;;14.38;7.78;;;7.00;90.00;;;;;;5092811;28;20122;-65
2021/03/01 11:38:29;;;;;;;17.90;7.88;;;7.10;90.00;;;;;;5092790;28;20088;-66
2021/03/01 11:40:55;;;;;;;16.38;7.47;;;7.10;90.30;;;;;;5089115;28;20045;-61
2021/03/01 11:43:21;;;;;;;14.47;7.40;;;7.10;89.80;;;;;;5073835;28;20025;-64
2021/03/01 11:45:47;;;;;;;19.30;7.60;;;7.20;89.70;;;;;;5083391;28;20060;-63
2021/03/01 11:48:14;;;;;;;11.57;5.90;;;7.30;90.10;;;;;;5086859;28;20028;-65
2021/03/01 11:50:44;;;;;;;13.32;6.60;;;7.30;89.00;;;;;;5090915;28;20044;-65
2021/03/01 11:53:13;;;;;;;12.87;6.03;;;7.30;88.20;;;;;;5087010;28;20048;-66
2021/03/01 11:55:39;;;;;;;15.52;6.45;;;7.30;86.90;;;;;;5084431;28;20286;-65
2021/03/01 11:58:04;;;;;;;11.47;5.73;;;7.40;87.30;;;;;;5086808;28;20134;-63
2021/03/01 12:00:30;;;;;;;16.20;6.47;;;7.40;87.30;;;;;;5084699;28;20694;-66
2021/03/01 12:02:56;;;;;;;15.43;7.17;;;7.50;86.90;;;;;;5090238;28;20043;-65
2021/03/01 12:05:22;;;;;;;12.40;7.00;;;7.60;88.50;;;;;;5091995;28;20028;-66
2021/03/01 12:07:48;;;;;;;17.70;7.07;;;7.60;89.00;;;;;;5091032;28;20025;-65
2021/03/01 12:10:14;;;;;;;14.63;6.90;;;7.60;87.80;;;;;;5090602;28;20075;-65
2021/03/01 12:12:40;;;;;;;15.33;6.00;;;7.70;88.20;;;;;;5091908;28;20303;-65
2021/03/01 12:15:07;;;;;;;12.57;6.00;;;7.70;85.90;;;;;;5092104;28;20056;-66
2021/03/01 12:17:33;;;;;;;9.37;5.20;;;7.80;85.90;;;;;;5091539;28;20028;-65
2021/03/01 12:19:59;;;;;;;14.33;5.83;;;7.80;85.20;;;;;;5091908;28;20365;-66
2021/03/01 12:22:24;;;;;;;14.30;5.93;;;7.90;86.10;;;;;;5092188;28;20293;-66
2021/03/01 12:24:50;;;;;;;12.23;5.37;;;7.90;84.70;;;;;;5084964;28;20033;-66
2021/03/01 12:27:16;;;;;;;12.20;5.23;;;8.00;87.00;;;;;;5091928;28;20036;-66
2021/03/01 12:29:41;;;;;;;11.53;5.20;;;8.00;82.60;;;;;;5091662;28;20041;-66
2021/03/01 12:32:07;;;;;;;12.43;5.40;;;8.00;83.10;;;;;;5092009;28;20116;-66
2021/03/01 12:34:34;;;;;;;11.13;5.90;;;8.00;83.00;;;;;;5091561;28;20086;-65
2021/03/01 12:37:03;;;;;;;12.93;5.70;;;8.10;83.70;;;;;;5091908;28;20028;-65
2021/03/01 12:39:29;;;;;;;12.23;5.50;;;8.10;81.90;;;;;;5091765;28;20291;-65
2021/03/01 12:41:54;;;;;;;11.37;6.40;;;8.10;79.80;;;;;;5091582;28;20325;-66
2021/03/01 12:44:21;;;;;;;12.17;5.77;;;8.10;80.80;;;;;;5092029;28;20032;-66
2021/03/01 12:46:47;;;;;;;9.23;5.23;;;8.20;81.30;;;;;;5092021;28;20025;-66